Terminal Aerodrome Forecast
Issued by NWS Knoxville/Tri Cities, TN

Home | Current Version | Previous Version | Text Only | Print | Product List | Glossary On
Versions: 1 2 3 4 5 6 7 8 9 10 11 12 13 14 15 16 17 18 19 20 21 22 23 24 25 26 27 28 29 30 31 32 33 34 35 36 37 38 39 40 41
000
FTUS44 KMRX 150326 AAB
TAFTYS
TAF AMD
KTYS 150326Z 1503/1524 25005KT P6SM SCT050 OVC060
     FM150800 VRB03KT P6SM BKN015
     FM151600 VRB03KT P6SM SCT100
     FM152000 29004KT P6SM OVC100=

USA.gov is the U.S. government's official web portal to all federal, state and local government web resources and services.